sensor_id;sensor_type;location;lat;lon;timestamp;pressure;altitude;pressure_sealevel;temperature;humidity
33859;BME280;20156;47.486;12.074;2022-07-19T00:00:21;96018.59;;;17.72;100.00
33859;BME280;20156;47.486;12.074;2022-07-19T00:02:48;96014.47;;;17.76;100.00
33859;BME280;20156;47.486;12.074;2022-07-19T00:05:14;96017.63;;;17.55;100.00
33859;BME280;20156;47.486;12.074;2022-07-19T00:07:40;96017.59;;;17.43;100.00
33859;BME280;20156;47.486;12.074;2022-07-19T00:10:08;96018.78;;;17.47;100.00
33859;BME280;20156;47.486;12.074;2022-07-19T00:12:34;96016.44;;;17.69;100.00
33859;BME280;20156;47.486;12.074;2022-07-19T00:15:00;96018.06;;;17.40;100.00
33859;BME280;20156;47.486;12.074;2022-07-19T00:17:25;96019.00;;;17.04;100.00
33859;BME280;20156;47.486;12.074;2022-07-19T00:19:51;96022.59;;;17.21;100.00
33859;BME280;20156;47.486;12.074;2022-07-19T00:22:16;96025.38;;;17.38;100.00
33859;BME280;20156;47.486;12.074;2022-07-19T00:24:42;96020.13;;;17.38;100.00
33859;BME280;20156;47.486;12.074;2022-07-19T00:27:07;96021.94;;;17.37;100.00
33859;BME280;20156;47.486;12.074;2022-07-19T00:29:32;96024.16;;;17.52;100.00
33859;BME280;20156;47.486;12.074;2022-07-19T00:31:58;96021.59;;;17.34;100.00
33859;BME280;20156;47.486;12.074;2022-07-19T00:34:23;96022.47;;;16.86;100.00
33859;BME280;20156;47.486;12.074;2022-07-19T00:36:49;96032.44;;;16.59;100.00
33859;BME280;20156;47.486;12.074;2022-07-19T00:39:14;96024.19;;;16.92;100.00
33859;BME280;20156;47.486;12.074;2022-07-19T00:41:41;96022.06;;;17.01;100.00
33859;BME280;20156;47.486;12.074;2022-07-19T00:44:08;96027.50;;;16.88;100.00
33859;BME280;20156;47.486;12.074;2022-07-19T00:46:33;96031.59;;;16.83;100.00
33859;BME280;20156;47.486;12.074;2022-07-19T00:48:59;96027.84;;;16.91;100.00
33859;BME280;20156;47.486;12.074;2022-07-19T00:51:24;96022.06;;;17.01;100.00
33859;BME280;20156;47.486;12.074;2022-07-19T00:53:51;96026.19;;;17.08;100.00
33859;BME280;20156;47.486;12.074;2022-07-19T00:56:18;96021.66;;;17.16;100.00
33859;BME280;20156;47.486;12.074;2022-07-19T00:58:44;96020.25;;;17.13;100.00
33859;BME280;20156;47.486;12.074;2022-07-19T01:01:12;96035.53;;;16.74;100.00
33859;BME280;20156;47.486;12.074;2022-07-19T01:03:39;96031.88;;;16.57;100.00
33859;BME280;20156;47.486;12.074;2022-07-19T01:06:06;96032.69;;;16.21;100.00
33859;BME280;20156;47.486;12.074;2022-07-19T01:08:32;96035.97;;;16.16;100.00
33859;BME280;20156;47.486;12.074;2022-07-19T01:10:57;96028.00;;;16.41;100.00
33859;BME280;20156;47.486;12.074;2022-07-19T01:13:23;96032.22;;;16.61;100.00
33859;BME280;20156;47.486;12.074;2022-07-19T01:15:49;96037.09;;;16.94;100.00
33859;BME280;20156;47.486;12.074;2022-07-19T01:18:15;96034.94;;;16.91;100.00
33859;BME280;20156;47.486;12.074;2022-07-19T01:20:40;96024.50;;;16.66;100.00
33859;BME280;20156;47.486;12.074;2022-07-19T01:23:06;96029.03;;;16.59;100.00
33859;BME280;20156;47.486;12.074;2022-07-19T01:25:34;96029.13;;;16.52;100.00
33859;BME280;20156;47.486;12.074;2022-07-19T01:28:01;96026.84;;;16.55;100.00
33859;BME280;20156;47.486;12.074;2022-07-19T01:30:27;96028.56;;;16.68;100.00
33859;BME280;20156;47.486;12.074;2022-07-19T01:32:53;96030.34;;;16.49;100.00
33859;BME280;20156;47.486;12.074;2022-07-19T01:35:19;96031.38;;;16.30;100.00
33859;BME280;20156;47.486;12.074;2022-07-19T01:37:45;96031.44;;;16.23;100.00
33859;BME280;20156;47.486;12.074;2022-07-19T01:40:13;96034.16;;;16.35;100.00
33859;BME280;20156;47.486;12.074;2022-07-19T01:42:39;96029.47;;;16.55;100.00
33859;BME280;20156;47.486;12.074;2022-07-19T01:45:06;96029.34;;;16.69;100.00
33859;BME280;20156;47.486;12.074;2022-07-19T01:47:32;96026.03;;;16.18;100.00
33859;BME280;20156;47.486;12.074;2022-07-19T01:49:57;96015.75;;;16.35;100.00
33859;BME280;20156;47.486;12.074;2022-07-19T01:52:22;96030.50;;;16.36;100.00
33859;BME280;20156;47.486;12.074;2022-07-19T01:54:48;96024.31;;;16.49;100.00
33859;BME280;20156;47.486;12.074;2022-07-19T01:57:13;96025.13;;;16.68;100.00
33859;BME280;20156;47.486;12.074;2022-07-19T01:59:39;96031.66;;;16.40;100.00
33859;BME280;20156;47.486;12.074;2022-07-19T02:02:05;96031.78;;;16.45;100.00
33859;BME280;20156;47.486;12.074;2022-07-19T02:04:31;96026.94;;;16.49;100.00
33859;BME280;20156;47.486;12.074;2022-07-19T02:06:56;96032.28;;;15.99;100.00
33859;BME280;20156;47.486;12.074;2022-07-19T02:09:22;96040.34;;;15.79;100.00
33859;BME280;20156;47.486;12.074;2022-07-19T02:11:47;96041.78;;;15.75;100.00
33859;BME280;20156;47.486;12.074;2022-07-19T02:14:13;96039.94;;;16.01;100.00
33859;BME280;20156;47.486;12.074;2022-07-19T02:16:39;96051.13;;;16.14;100.00
33859;BME280;20156;47.486;12.074;2022-07-19T02:19:06;96043.72;;;16.30;100.00
33859;BME280;20156;47.486;12.074;2022-07-19T02:21:32;96043.84;;;16.35;100.00
33859;BME280;20156;47.486;12.074;2022-07-19T02:23:57;96036.78;;;16.35;100.00
33859;BME280;20156;47.486;12.074;2022-07-19T02:26:23;96030.50;;;16.36;100.00
33859;BME280;20156;47.486;12.074;2022-07-19T02:28:49;96035.28;;;16.03;100.00
33859;BME280;20156;47.486;12.074;2022-07-19T02:31:14;96045.25;;;15.69;100.00
33859;BME280;20156;47.486;12.074;2022-07-19T02:33:39;96037.91;;;15.78;100.00
33859;BME280;20156;47.486;12.074;2022-07-19T02:36:05;96040.94;;;15.81;100.00
33859;BME280;20156;47.486;12.074;2022-07-19T02:38:30;96036.16;;;15.97;100.00
33859;BME280;20156;47.486;12.074;2022-07-19T02:40:56;96036.00;;;16.10;100.00
33859;BME280;20156;47.486;12.074;2022-07-19T02:43:21;96030.97;;;16.08;100.00
33859;BME280;20156;47.486;12.074;2022-07-19T02:45:47;96040.16;;;15.74;100.00
33859;BME280;20156;47.486;12.074;2022-07-19T02:48:12;96045.94;;;15.26;100.00
33859;BME280;20156;47.486;12.074;2022-07-19T02:50:38;96049.72;;;15.69;100.00
33859;BME280;20156;47.486;12.074;2022-07-19T02:53:03;96049.78;;;15.62;100.00
33859;BME280;20156;47.486;12.074;2022-07-19T02:55:29;96046.44;;;15.42;100.00
33859;BME280;20156;47.486;12.074;2022-07-19T02:57:54;96045.72;;;15.59;100.00
33859;BME280;20156;47.486;12.074;2022-07-19T03:00:19;96039.91;;;15.82;100.00
33859;BME280;20156;47.486;12.074;2022-07-19T03:02:45;96032.41;;;15.86;100.00
33859;BME280;20156;47.486;12.074;2022-07-19T03:05:10;96044.97;;;15.77;100.00
33859;BME280;20156;47.486;12.074;2022-07-19T03:07:36;96044.53;;;15.62;100.00
33859;BME280;20156;47.486;12.074;2022-07-19T03:10:02;96047.09;;;15.69;100.00
33859;BME280;20156;47.486;12.074;2022-07-19T03:12:28;96039.28;;;15.62;100.00
33859;BME280;20156;47.486;12.074;2022-07-19T03:14:53;96043.69;;;15.61;100.00
33859;BME280;20156;47.486;12.074;2022-07-19T03:17:18;96031.81;;;15.84;100.00
33859;BME280;20156;47.486;12.074;2022-07-19T03:19:44;96030.25;;;15.76;100.00
33859;BME280;20156;47.486;12.074;2022-07-19T03:22:11;96006.44;;;15.21;100.00
33859;BME280;20156;47.486;12.074;2022-07-19T03:24:36;96010.38;;;15.37;100.00
33859;BME280;20156;47.486;12.074;2022-07-19T03:27:02;95991.84;;;15.57;100.00
33859;BME280;20156;47.486;12.074;2022-07-19T03:29:28;95983.47;;;15.73;100.00
33859;BME280;20156;47.486;12.074;2022-07-19T03:31:53;95984.63;;;15.77;100.00
33859;BME280;20156;47.486;12.074;2022-07-19T03:34:19;95981.22;;;15.77;100.00
33859;BME280;20156;47.486;12.074;2022-07-19T03:36:44;95990.09;;;15.76;100.00
33859;BME280;20156;47.486;12.074;2022-07-19T03:39:10;95987.88;;;15.79;100.00
33859;BME280;20156;47.486;12.074;2022-07-19T03:41:35;95993.06;;;15.61;100.00
33859;BME280;20156;47.486;12.074;2022-07-19T03:44:00;95990.72;;;15.21;100.00
33859;BME280;20156;47.486;12.074;2022-07-19T03:46:26;95997.72;;;15.27;100.00
33859;BME280;20156;47.486;12.074;2022-07-19T03:48:53;96004.00;;;15.51;100.00
33859;BME280;20156;47.486;12.074;2022-07-19T03:51:19;95999.94;;;15.55;100.00
33859;BME280;20156;47.486;12.074;2022-07-19T03:53:44;96000.22;;;15.47;100.00
33859;BME280;20156;47.486;12.074;2022-07-19T03:56:10;95998.88;;;15.38;100.00
33859;BME280;20156;47.486;12.074;2022-07-19T03:58:36;95995.09;;;15.59;100.00
33859;BME280;20156;47.486;12.074;2022-07-19T04:01:01;95996.84;;;15.90;100.00
33859;BME280;20156;47.486;12.074;2022-07-19T04:03:27;95995.28;;;15.64;100.00
33859;BME280;20156;47.486;12.074;2022-07-19T04:05:52;96002.16;;;15.27;100.00
33859;BME280;20156;47.486;12.074;2022-07-19T04:08:18;96009.94;;;15.15;100.00
33859;BME280;20156;47.486;12.074;2022-07-19T04:10:43;96012.78;;;15.07;100.00
33859;BME280;20156;47.486;12.074;2022-07-19T04:13:09;96011.03;;;15.26;100.00
33859;BME280;20156;47.486;12.074;2022-07-19T04:15:34;96009.19;;;15.58;100.00
33859;BME280;20156;47.486;12.074;2022-07-19T04:17:59;96007.94;;;15.67;100.00
33859;BME280;20156;47.486;12.074;2022-07-19T04:20:25;96004.31;;;15.68;100.00
33859;BME280;20156;47.486;12.074;2022-07-19T04:22:50;96015.63;;;15.37;100.00
33859;BME280;20156;47.486;12.074;2022-07-19T04:25:16;96015.84;;;15.35;100.00
33859;BME280;20156;47.486;12.074;2022-07-19T04:27:41;96019.59;;;15.46;100.00
33859;BME280;20156;47.486;12.074;2022-07-19T04:30:07;96011.75;;;15.71;100.00
33859;BME280;20156;47.486;12.074;2022-07-19T04:32:32;96012.44;;;15.85;100.00
33859;BME280;20156;47.486;12.074;2022-07-19T04:34:59;96014.84;;;15.86;100.00
33859;BME280;20156;47.486;12.074;2022-07-19T04:37:25;96015.31;;;16.02;100.00
33859;BME280;20156;47.486;12.074;2022-07-19T04:39:50;96015.44;;;16.07;100.00
33859;BME280;20156;47.486;12.074;2022-07-19T04:42:16;96015.00;;;16.10;100.00
33859;BME280;20156;47.486;12.074;2022-07-19T04:44:41;96016.31;;;16.01;100.00
33859;BME280;20156;47.486;12.074;2022-07-19T04:47:07;96019.56;;;16.21;100.00
33859;BME280;20156;47.486;12.074;2022-07-19T04:49:32;96006.53;;;17.11;100.00
33859;BME280;20156;47.486;12.074;2022-07-19T04:51:58;96016.00;;;17.00;100.00
33859;BME280;20156;47.486;12.074;2022-07-19T04:54:23;96018.97;;;17.34;100.00
33859;BME280;20156;47.486;12.074;2022-07-19T04:56:48;96019.69;;;17.11;100.00
33859;BME280;20156;47.486;12.074;2022-07-19T04:59:14;96012.69;;;17.47;100.00
33859;BME280;20156;47.486;12.074;2022-07-19T05:01:39;96023.75;;;17.25;100.00
33859;BME280;20156;47.486;12.074;2022-07-19T05:04:05;96021.09;;;17.25;100.00
33859;BME280;20156;47.486;12.074;2022-07-19T05:06:30;96020.22;;;17.43;100.00
33859;BME280;20156;47.486;12.074;2022-07-19T05:08:56;96016.84;;;17.66;100.00
33859;BME280;20156;47.486;12.074;2022-07-19T05:11:22;96009.91;;;17.95;100.00
33859;BME280;20156;47.486;12.074;2022-07-19T05:13:47;96001.31;;;18.11;100.00
33859;BME280;20156;47.486;12.074;2022-07-19T05:16:13;96000.97;;;18.31;100.00
33859;BME280;20156;47.486;12.074;2022-07-19T05:18:38;96006.56;;;18.34;100.00
33859;BME280;20156;47.486;12.074;2022-07-19T05:21:05;95991.56;;;18.35;100.00
33859;BME280;20156;47.486;12.074;2022-07-19T05:23:31;95993.00;;;18.54;100.00
33859;BME280;20156;47.486;12.074;2022-07-19T05:25:56;95994.06;;;18.42;100.00
33859;BME280;20156;47.486;12.074;2022-07-19T05:28:22;95999.38;;;18.07;100.00
33859;BME280;20156;47.486;12.074;2022-07-19T05:30:48;96008.06;;;18.07;100.00
33859;BME280;20156;47.486;12.074;2022-07-19T05:33:13;96007.84;;;18.20;100.00
33859;BME280;20156;47.486;12.074;2022-07-19T05:35:38;96004.41;;;18.31;100.00
33859;BME280;20156;47.486;12.074;2022-07-19T05:38:04;96000.97;;;18.31;100.00
33859;BME280;20156;47.486;12.074;2022-07-19T05:40:29;96002.09;;;18.35;100.00
33859;BME280;20156;47.486;12.074;2022-07-19T05:42:55;95991.00;;;18.61;100.00
33859;BME280;20156;47.486;12.074;2022-07-19T05:45:21;95989.31;;;18.67;100.00
33859;BME280;20156;47.486;12.074;2022-07-19T05:47:46;95994.09;;;18.82;100.00
33859;BME280;20156;47.486;12.074;2022-07-19T05:50:11;95985.56;;;18.91;100.00
33859;BME280;20156;47.486;12.074;2022-07-19T05:52:37;95985.59;;;18.80;100.00
33859;BME280;20156;47.486;12.074;2022-07-19T05:55:03;95985.31;;;18.93;100.00
33859;BME280;20156;47.486;12.074;2022-07-19T05:57:29;95980.34;;;19.42;100.00
33859;BME280;20156;47.486;12.074;2022-07-19T05:59:54;95975.66;;;19.61;100.00
33859;BME280;20156;47.486;12.074;2022-07-19T06:02:20;95974.38;;;19.80;100.00
33859;BME280;20156;47.486;12.074;2022-07-19T06:04:45;95982.78;;;19.77;100.00
33859;BME280;20156;47.486;12.074;2022-07-19T06:07:11;95978.28;;;19.77;100.00
33859;BME280;20156;47.486;12.074;2022-07-19T06:09:37;95977.41;;;19.89;100.00
33859;BME280;20156;47.486;12.074;2022-07-19T06:12:03;95968.69;;;19.88;100.00
33859;BME280;20156;47.486;12.074;2022-07-19T06:14:28;95965.81;;;19.73;100.00
33859;BME280;20156;47.486;12.074;2022-07-19T06:16:54;95972.03;;;20.00;100.00
33859;BME280;20156;47.486;12.074;2022-07-19T06:19:20;95968.50;;;19.95;100.00
33859;BME280;20156;47.486;12.074;2022-07-19T06:21:45;95974.09;;;19.98;100.00
33859;BME280;20156;47.486;12.074;2022-07-19T06:24:11;95971.59;;;20.08;100.00
33859;BME280;20156;47.486;12.074;2022-07-19T06:26:36;95967.66;;;20.11;100.00
33859;BME280;20156;47.486;12.074;2022-07-19T06:29:02;95964.22;;;20.71;100.00
33859;BME280;20156;47.486;12.074;2022-07-19T06:31:28;95960.59;;;20.82;100.00
33859;BME280;20156;47.486;12.074;2022-07-19T06:33:53;95958.38;;;20.96;100.00
33859;BME280;20156;47.486;12.074;2022-07-19T06:36:19;95959.59;;;21.15;100.00
33859;BME280;20156;47.486;12.074;2022-07-19T06:38:45;95946.94;;;21.17;100.00
33859;BME280;20156;47.486;12.074;2022-07-19T06:41:11;95943.47;;;21.44;100.00
33859;BME280;20156;47.486;12.074;2022-07-19T06:43:38;95942.16;;;21.46;100.00
33859;BME280;20156;47.486;12.074;2022-07-19T06:46:04;95935.25;;;21.40;100.00
33859;BME280;20156;47.486;12.074;2022-07-19T06:48:29;95934.56;;;21.55;100.00
33859;BME280;20156;47.486;12.074;2022-07-19T06:50:55;95936.00;;;21.73;100.00
33859;BME280;20156;47.486;12.074;2022-07-19T06:53:20;95929.69;;;21.79;100.00
33859;BME280;20156;47.486;12.074;2022-07-19T06:55:46;95929.50;;;21.90;100.00
33859;BME280;20156;47.486;12.074;2022-07-19T06:58:11;95925.09;;;22.06;100.00
33859;BME280;20156;47.486;12.074;2022-07-19T07:00:37;95918.75;;;22.07;100.00
33859;BME280;20156;47.486;12.074;2022-07-19T07:03:03;95920.78;;;22.00;100.00
33859;BME280;20156;47.486;12.074;2022-07-19T07:05:28;95928.81;;;22.05;100.00
33859;BME280;20156;47.486;12.074;2022-07-19T07:07:54;95920.75;;;22.42;100.00
33859;BME280;20156;47.486;12.074;2022-07-19T07:10:20;95917.59;;;22.56;100.00
33859;BME280;20156;47.486;12.074;2022-07-19T07:12:45;95910.72;;;22.65;100.00
33859;BME280;20156;47.486;12.074;2022-07-19T07:15:11;95918.50;;;22.92;100.00
33859;BME280;20156;47.486;12.074;2022-07-19T07:17:37;95908.69;;;22.92;100.00
33859;BME280;20156;47.486;12.074;2022-07-19T07:20:06;95911.91;;;23.25;100.00
33859;BME280;20156;47.486;12.074;2022-07-19T07:22:33;95909.25;;;23.25;100.00
33859;BME280;20156;47.486;12.074;2022-07-19T07:24:58;95905.00;;;23.24;100.00
33859;BME280;20156;47.486;12.074;2022-07-19T07:27:24;95897.81;;;23.24;100.00
33859;BME280;20156;47.486;12.074;2022-07-19T07:29:50;95900.72;;;23.48;100.00
33859;BME280;20156;47.486;12.074;2022-07-19T07:32:15;95896.72;;;23.51;100.00
33859;BME280;20156;47.486;12.074;2022-07-19T07:34:41;95907.13;;;23.57;100.00
33859;BME280;20156;47.486;12.074;2022-07-19T07:37:06;95900.72;;;23.63;100.00
33859;BME280;20156;47.486;12.074;2022-07-19T07:39:31;95900.19;;;23.66;100.00
33859;BME280;20156;47.486;12.074;2022-07-19T07:41:57;95892.47;;;23.75;100.00
33859;BME280;20156;47.486;12.074;2022-07-19T07:44:22;95901.47;;;23.94;100.00
33859;BME280;20156;47.486;12.074;2022-07-19T07:46:47;95903.88;;;23.91;100.00
33859;BME280;20156;47.486;12.074;2022-07-19T07:49:13;95900.28;;;24.31;100.00
33859;BME280;20156;47.486;12.074;2022-07-19T07:51:38;95898.94;;;24.34;100.00
33859;BME280;20156;47.486;12.074;2022-07-19T07:54:04;95892.03;;;24.38;100.00
33859;BME280;20156;47.486;12.074;2022-07-19T07:56:29;95888.00;;;24.45;100.00
33859;BME280;20156;47.486;12.074;2022-07-19T07:58:55;95881.47;;;24.72;100.00
33859;BME280;20156;47.486;12.074;2022-07-19T08:01:20;95881.88;;;24.89;100.00
33859;BME280;20156;47.486;12.074;2022-07-19T08:03:46;95875.06;;;24.73;100.00
33859;BME280;20156;47.486;12.074;2022-07-19T08:06:11;95877.81;;;24.97;100.00
33859;BME280;20156;47.486;12.074;2022-07-19T08:08:37;95877.63;;;25.27;100.00
33859;BME280;20156;47.486;12.074;2022-07-19T08:11:03;95875.88;;;25.12;100.00
33859;BME280;20156;47.486;12.074;2022-07-19T08:13:29;95869.94;;;24.86;100.00
33859;BME280;20156;47.486;12.074;2022-07-19T08:15:55;95876.53;;;24.94;100.00
33859;BME280;20156;47.486;12.074;2022-07-19T08:18:21;95866.56;;;25.10;100.00
33859;BME280;20156;47.486;12.074;2022-07-19T08:20:46;95859.72;;;25.33;100.00
33859;BME280;20156;47.486;12.074;2022-07-19T08:23:12;95862.44;;;25.57;100.00
33859;BME280;20156;47.486;12.074;2022-07-19T08:25:37;95856.03;;;25.87;100.00
33859;BME280;20156;47.486;12.074;2022-07-19T08:28:03;95859.41;;;25.92;100.00
33859;BME280;20156;47.486;12.074;2022-07-19T08:30:30;95855.13;;;26.15;100.00
33859;BME280;20156;47.486;12.074;2022-07-19T08:32:56;95848.78;;;26.35;100.00
33859;BME280;20156;47.486;12.074;2022-07-19T08:35:22;95856.75;;;26.59;100.00
33859;BME280;20156;47.486;12.074;2022-07-19T08:37:47;95855.66;;;26.60;100.00
33859;BME280;20156;47.486;12.074;2022-07-19T08:40:13;95849.34;;;26.69;100.00
33859;BME280;20156;47.486;12.074;2022-07-19T08:42:38;95847.63;;;26.79;100.00
33859;BME280;20156;47.486;12.074;2022-07-19T08:45:06;95853.25;;;26.96;100.00
33859;BME280;20156;47.486;12.074;2022-07-19T08:47:33;95849.59;;;26.73;100.00
33859;BME280;20156;47.486;12.074;2022-07-19T08:50:00;95849.72;;;27.01;100.00
33859;BME280;20156;47.486;12.074;2022-07-19T08:52:26;95845.31;;;27.10;100.00
33859;BME280;20156;47.486;12.074;2022-07-19T08:54:52;95846.59;;;27.12;100.00
33859;BME280;20156;47.486;12.074;2022-07-19T08:57:17;95841.69;;;27.33;100.00
33859;BME280;20156;47.486;12.074;2022-07-19T09:00:03;95838.44;;;27.04;100.00
33859;BME280;20156;47.486;12.074;2022-07-19T09:02:29;95839.97;;;27.56;100.00
33859;BME280;20156;47.486;12.074;2022-07-19T09:05:09;95833.06;;;27.82;100.00
33859;BME280;20156;47.486;12.074;2022-07-19T09:07:39;95831.97;;;27.83;100.00
33859;BME280;20156;47.486;12.074;2022-07-19T09:10:21;95831.78;;;27.80;100.00
33859;BME280;20156;47.486;12.074;2022-07-19T09:13:06;95823.84;;;28.02;100.00
33859;BME280;20156;47.486;12.074;2022-07-19T09:15:52;95819.50;;;27.93;100.00
33859;BME280;20156;47.486;12.074;2022-07-19T09:18:30;95809.53;;;28.21;100.00
33859;BME280;20156;47.486;12.074;2022-07-19T09:20:59;95813.13;;;28.30;100.00
33859;BME280;20156;47.486;12.074;2022-07-19T09:23:26;95809.06;;;28.32;100.00
33859;BME280;20156;47.486;12.074;2022-07-19T09:25:53;95809.69;;;28.52;100.00
33859;BME280;20156;47.486;12.074;2022-07-19T09:28:21;95809.16;;;28.99;100.00
33859;BME280;20156;47.486;12.074;2022-07-19T09:30:50;95808.72;;;28.48;100.00
33859;BME280;20156;47.486;12.074;2022-07-19T09:33:21;95805.75;;;28.49;100.00
33859;BME280;20156;47.486;12.074;2022-07-19T09:38:19;95817.28;;;29.17;100.00
33859;BME280;20156;47.486;12.074;2022-07-19T09:40:46;95810.06;;;28.95;100.00
33859;BME280;20156;47.486;12.074;2022-07-19T09:43:12;95811.28;;;29.11;100.00
33859;BME280;20156;47.486;12.074;2022-07-19T09:45:38;95800.50;;;29.33;100.00
33859;BME280;20156;47.486;12.074;2022-07-19T09:48:03;95794.69;;;29.71;100.00
33859;BME280;20156;47.486;12.074;2022-07-19T09:50:29;95792.88;;;29.89;100.00
33859;BME280;20156;47.486;12.074;2022-07-19T09:52:58;95788.97;;;29.55;100.00
33859;BME280;20156;47.486;12.074;2022-07-19T09:55:24;95788.75;;;29.74;100.00
33859;BME280;20156;47.486;12.074;2022-07-19T09:57:50;95779.53;;;29.67;100.00
33859;BME280;20156;47.486;12.074;2022-07-19T10:00:21;95781.59;;;28.63;90.49
33859;BME280;20156;47.486;12.074;2022-07-19T10:02:52;95773.06;;;28.25;91.69
33859;BME280;20156;47.486;12.074;2022-07-19T10:05:19;95781.25;;;29.00;87.94
33859;BME280;20156;47.486;12.074;2022-07-19T10:07:44;95773.25;;;28.64;89.47
33859;BME280;20156;47.486;12.074;2022-07-19T10:10:12;95767.34;;;28.54;88.87
33859;BME280;20156;47.486;12.074;2022-07-19T10:12:39;95765.41;;;28.68;85.88
33859;BME280;20156;47.486;12.074;2022-07-19T10:15:07;95761.31;;;28.48;85.70
33859;BME280;20156;47.486;12.074;2022-07-19T10:17:37;95766.13;;;28.82;86.69
33859;BME280;20156;47.486;12.074;2022-07-19T10:20:05;95761.38;;;29.32;83.14
33859;BME280;20156;47.486;12.074;2022-07-19T10:22:32;95760.78;;;28.82;79.03
33859;BME280;20156;47.486;12.074;2022-07-19T10:32:30;95748.03;;;31.28;87.22
33859;BME280;20156;47.486;12.074;2022-07-19T10:37:40;95751.31;;;31.71;85.99
33859;BME280;20156;47.486;12.074;2022-07-19T10:40:06;95750.72;;;31.57;86.30
33859;BME280;20156;47.486;12.074;2022-07-19T10:42:31;95747.09;;;31.91;85.93
33859;BME280;20156;47.486;12.074;2022-07-19T10:50:16;95734.44;;;31.92;83.44
33859;BME280;20156;47.486;12.074;2022-07-19T10:52:44;95733.81;;;31.10;85.57
33859;BME280;20156;47.486;12.074;2022-07-19T10:57:49;95736.03;;;31.08;86.07
33859;BME280;20156;47.486;12.074;2022-07-19T11:02:45;95727.25;;;32.25;97.93
33859;BME280;20156;47.486;12.074;2022-07-19T11:05:28;95725.84;;;32.19;94.72
33859;BME280;20156;47.486;12.074;2022-07-19T11:07:56;95719.69;;;32.60;95.11
33859;BME280;20156;47.486;12.074;2022-07-19T11:10:24;95714.97;;;33.03;86.00
33859;BME280;20156;47.486;12.074;2022-07-19T11:12:51;95720.06;;;31.11;81.58
33859;BME280;20156;47.486;12.074;2022-07-19T11:15:16;95714.50;;;31.17;79.10
33859;BME280;20156;47.486;12.074;2022-07-19T11:18:01;95708.28;;;30.61;86.27
33859;BME280;20156;47.486;12.074;2022-07-19T11:20:30;95705.09;;;30.93;84.33
33859;BME280;20156;47.486;12.074;2022-07-19T11:22:56;95699.00;;;31.13;85.81
33859;BME280;20156;47.486;12.074;2022-07-19T11:25:43;95692.47;;;31.32;90.48
33859;BME280;20156;47.486;12.074;2022-07-19T11:28:23;95681.31;;;31.80;91.14
33859;BME280;20156;47.486;12.074;2022-07-19T11:30:49;95696.06;;;32.57;91.36
33859;BME280;20156;47.486;12.074;2022-07-19T11:33:19;95692.66;;;32.48;93.61
33859;BME280;20156;47.486;12.074;2022-07-19T11:35:59;95684.44;;;31.53;83.35
33859;BME280;20156;47.486;12.074;2022-07-19T11:41:00;95672.88;;;31.52;83.21
33859;BME280;20156;47.486;12.074;2022-07-19T11:43:25;95677.34;;;31.48;82.97
33859;BME280;20156;47.486;12.074;2022-07-19T11:45:51;95674.84;;;31.43;81.31
33859;BME280;20156;47.486;12.074;2022-07-19T11:48:27;95671.34;;;32.55;85.32
33859;BME280;20156;47.486;12.074;2022-07-19T11:53:24;95660.84;;;32.21;80.68
33859;BME280;20156;47.486;12.074;2022-07-19T11:55:49;95661.06;;;32.70;69.14
33859;BME280;20156;47.486;12.074;2022-07-19T11:58:15;95653.84;;;33.07;68.52
33859;BME280;20156;47.486;12.074;2022-07-19T12:00:41;95646.63;;;33.84;80.15
33859;BME280;20156;47.486;12.074;2022-07-19T12:03:13;95651.97;;;33.44;72.07
33859;BME280;20156;47.486;12.074;2022-07-19T12:05:39;95643.63;;;33.12;77.75
33859;BME280;20156;47.486;12.074;2022-07-19T12:08:07;95649.78;;;32.88;69.13
33859;BME280;20156;47.486;12.074;2022-07-19T12:10:38;95635.44;;;34.10;73.53
33859;BME280;20156;47.486;12.074;2022-07-19T12:13:06;95639.69;;;32.98;67.00
33859;BME280;20156;47.486;12.074;2022-07-19T12:18:41;95628.66;;;33.03;71.00
33859;BME280;20156;47.486;12.074;2022-07-19T12:21:21;95624.41;;;33.38;62.76
33859;BME280;20156;47.486;12.074;2022-07-19T12:24:16;95620.34;;;32.50;67.93
33859;BME280;20156;47.486;12.074;2022-07-19T12:27:05;95609.88;;;33.31;86.34
33859;BME280;20156;47.486;12.074;2022-07-19T12:29:36;95606.63;;;34.30;70.58
33859;BME280;20156;47.486;12.074;2022-07-19T12:32:11;95608.44;;;34.26;70.85
33859;BME280;20156;47.486;12.074;2022-07-19T12:34:50;95600.19;;;34.06;71.95
33859;BME280;20156;47.486;12.074;2022-07-19T12:37:31;95598.22;;;33.14;70.15
33859;BME280;20156;47.486;12.074;2022-07-19T12:42:43;95588.09;;;33.76;69.09
33859;BME280;20156;47.486;12.074;2022-07-19T12:45:13;95584.13;;;33.09;67.48
33859;BME280;20156;47.486;12.074;2022-07-19T12:47:39;95582.81;;;33.79;71.68
33859;BME280;20156;47.486;12.074;2022-07-19T12:50:05;95579.00;;;33.80;72.23
33859;BME280;20156;47.486;12.074;2022-07-19T12:52:31;95573.13;;;33.50;79.01
33859;BME280;20156;47.486;12.074;2022-07-19T12:54:56;95571.06;;;34.00;69.45
33859;BME280;20156;47.486;12.074;2022-07-19T12:57:22;95572.81;;;33.80;64.67
33859;BME280;20156;47.486;12.074;2022-07-19T12:59:47;95568.84;;;34.46;65.97
33859;BME280;20156;47.486;12.074;2022-07-19T13:02:15;95564.03;;;34.71;65.84
33859;BME280;20156;47.486;12.074;2022-07-19T13:04:42;95570.59;;;34.26;69.43
33859;BME280;20156;47.486;12.074;2022-07-19T13:07:09;95571.44;;;34.42;63.15
33859;BME280;20156;47.486;12.074;2022-07-19T13:09:34;95558.91;;;34.65;65.25
33859;BME280;20156;47.486;12.074;2022-07-19T13:12:05;95568.06;;;34.17;60.77
33859;BME280;20156;47.486;12.074;2022-07-19T13:14:33;95562.66;;;34.17;56.36